createdAt,value
2019-03-09T00:03:51.047Z,100607.45
2019-03-09T00:08:44.817Z,100593.86
2019-03-09T00:13:38.497Z,100575.71
2019-03-09T00:18:32.076Z,100557.04
2019-03-09T00:23:41.335Z,100563.95
2019-03-09T00:28:41.391Z,100555.34
2019-03-09T00:33:35.081Z,100544.61
2019-03-09T00:38:28.965Z,100547.20
2019-03-09T00:43:23.327Z,100547.90
2019-03-09T00:48:17.074Z,100538.42
2019-03-09T00:53:10.615Z,100527.16
2019-03-09T00:58:05.537Z,100516.50
2019-03-09T01:02:58.902Z,100508.45
2019-03-09T01:07:52.619Z,100498.95
2019-03-09T01:12:46.143Z,100495.50
2019-03-09T01:17:39.739Z,100483.98
2019-03-09T01:22:33.517Z,100479.06
2019-03-09T01:27:27.535Z,100473.02
2019-03-09T01:32:21.046Z,100459.84
2019-03-09T01:37:16.481Z,100455.60
2019-03-09T01:42:10.883Z,100444.27
2019-03-09T01:47:04.278Z,100438.34
2019-03-09T01:51:57.629Z,100430.02
2019-03-09T01:56:51.346Z,100433.09
2019-03-09T02:01:45.143Z,100421.23
2019-03-09T02:06:38.724Z,100420.91
2019-03-09T02:11:32.292Z,100417.22
2019-03-09T02:16:26.003Z,100410.47
2019-03-09T02:21:19.568Z,100408.98
2019-03-09T02:26:13.052Z,100399.33
2019-03-09T02:31:06.603Z,100406.25
2019-03-09T02:36:00.493Z,100395.38
2019-03-09T02:40:53.877Z,100399.04
2019-03-09T02:45:48.568Z,100397.10
2019-03-09T02:50:54.623Z,100393.07
2019-03-09T02:55:48.265Z,100394.25
2019-03-09T03:00:46.480Z,100392.42
2019-03-09T03:05:41.483Z,100395.64
2019-03-09T03:10:35.057Z,100390.24
2019-03-09T03:15:33.750Z,100398.28
2019-03-09T03:20:27.224Z,100396.58
2019-03-09T03:25:20.795Z,100393.39
2019-03-09T03:30:14.293Z,100400.75
2019-03-09T03:35:08.003Z,100403.36
2019-03-09T03:40:01.553Z,100409.45
2019-03-09T03:44:54.969Z,100396.49
2019-03-09T03:49:48.715Z,100414.94
2019-03-09T03:54:42.187Z,100401.07
2019-03-09T03:59:35.701Z,100412.00
2019-03-09T04:04:29.360Z,100412.88
2019-03-09T04:09:22.970Z,100417.13
2019-03-09T04:14:16.634Z,100413.75
2019-03-09T04:19:11.176Z,100424.79
2019-03-09T04:24:04.691Z,100435.20
2019-03-09T04:28:58.217Z,100432.43
2019-03-09T04:33:52.112Z,100434.48
2019-03-09T04:38:45.890Z,100449.53
2019-03-09T04:43:39.376Z,100477.26
2019-03-09T04:48:32.831Z,100480.95
2019-03-09T04:53:26.215Z,100472.28
2019-03-09T04:58:19.704Z,100477.09
2019-03-09T05:03:13.210Z,100468.22
2019-03-09T05:08:36.576Z,100490.64
2019-03-09T05:14:04.575Z,100512.79
2019-03-09T05:18:58.464Z,100514.06
2019-03-09T05:23:52.572Z,100505.66
2019-03-09T05:28:46.246Z,100479.22
2019-03-09T05:33:39.801Z,100487.47
2019-03-09T05:38:33.583Z,100523.44
2019-03-09T05:43:27.033Z,100534.77
2019-03-09T05:48:20.778Z,100549.06
2019-03-09T05:53:17.628Z,100551.00
2019-03-09T05:58:11.089Z,100558.69
2019-03-09T06:03:04.687Z,100553.14
2019-03-09T06:07:57.974Z,100544.84
2019-03-09T06:12:51.547Z,100527.20
2019-03-09T06:17:45.334Z,100522.63
2019-03-09T06:22:39.009Z,100531.34
2019-03-09T06:27:32.600Z,100537.06
2019-03-09T06:33:15.952Z,100549.61
2019-03-09T06:38:50.288Z,100568.58
2019-03-09T06:43:43.959Z,100591.36
2019-03-09T06:48:37.530Z,100604.98
2019-03-09T06:53:31.317Z,100613.52
2019-03-09T06:58:26.574Z,100617.55
2019-03-09T07:03:20.141Z,100627.59
2019-03-09T07:08:13.724Z,100642.47
2019-03-09T07:13:07.506Z,100661.63
2019-03-09T07:18:13.300Z,100658.88
2019-03-09T07:23:07.435Z,100658.68
2019-03-09T07:28:09.622Z,100649.86
2019-03-09T07:33:03.444Z,100658.72
2019-03-09T07:37:57.002Z,100671.16
2019-03-09T07:42:50.818Z,100683.47
2019-03-09T07:47:44.492Z,100685.23
2019-03-09T07:52:38.606Z,100669.59
2019-03-09T07:57:32.562Z,100669.94
2019-03-09T08:02:27.394Z,100681.78
2019-03-09T08:07:21.076Z,100684.44
2019-03-09T08:12:14.860Z,100691.55
2019-03-09T08:17:08.426Z,100711.95
2019-03-09T08:22:02.394Z,100716.13
2019-03-09T08:26:56.118Z,100722.74
2019-03-09T08:31:49.599Z,100733.58
2019-03-09T08:36:43.346Z,100715.37
2019-03-09T08:41:36.955Z,100703.40
2019-03-09T08:46:30.758Z,100688.68
2019-03-09T08:51:24.429Z,100698.02
2019-03-09T08:56:18.265Z,100692.76
2019-03-09T09:01:12.066Z,100711.03
2019-03-09T09:06:05.694Z,100718.01
2019-03-09T09:10:59.453Z,100721.08
2019-03-09T09:15:53.268Z,100725.45
2019-03-09T09:20:47.038Z,100725.13
2019-03-09T09:25:40.638Z,100707.36
2019-03-09T09:30:34.515Z,100706.53
2019-03-09T09:35:28.010Z,100699.48
2019-03-09T09:40:22.080Z,100701.58
2019-03-09T09:45:16.188Z,100681.52
2019-03-09T09:50:10.183Z,100664.86
2019-03-09T09:55:04.568Z,100651.23
2019-03-09T09:59:58.418Z,100661.83
2019-03-09T10:04:53.411Z,100674.72
2019-03-09T10:09:47.228Z,100650.41
2019-03-09T10:14:40.824Z,100617.33
2019-03-09T10:19:36.281Z,100612.59
2019-03-09T10:24:31.259Z,100633.37
2019-03-09T10:29:24.791Z,100658.75
2019-03-09T10:34:18.458Z,100672.33
2019-03-09T10:39:13.154Z,100663.46
2019-03-09T10:44:07.125Z,100673.51
2019-03-09T10:49:01.276Z,100664.95
2019-03-09T10:53:55.143Z,100655.16
2019-03-09T10:58:48.927Z,100641.28
2019-03-09T11:03:42.710Z,100648.87
2019-03-09T11:08:36.401Z,100650.66
2019-03-09T11:13:29.630Z,100644.00
2019-03-09T11:18:23.131Z,100627.75
2019-03-09T11:23:19.003Z,100620.94
2019-03-09T11:28:13.382Z,100621.04
2019-03-09T11:33:07.069Z,100625.91
2019-03-09T11:38:00.615Z,100628.52
2019-03-09T11:42:54.560Z,100614.00
2019-03-09T11:47:48.534Z,100602.09
2019-03-09T11:52:42.326Z,100553.70
2019-03-09T11:57:36.110Z,100530.60
2019-03-09T12:02:38.570Z,100506.48
2019-03-09T12:07:25.578Z,100490.58
2019-03-09T12:12:19.348Z,100440.84
2019-03-09T12:17:13.485Z,100439.64
2019-03-09T12:22:07.023Z,100432.02
2019-03-09T12:27:00.439Z,100460.07
2019-03-09T12:31:54.153Z,100448.69
2019-03-09T12:36:47.946Z,100435.92
2019-03-09T12:41:41.553Z,100419.98
2019-03-09T12:46:35.182Z,100423.14
2019-03-09T12:51:28.872Z,100378.08
2019-03-09T12:56:22.575Z,100375.30
2019-03-09T13:01:16.155Z,100349.41
2019-03-09T13:06:09.553Z,100361.89
2019-03-09T13:11:03.218Z,100357.00
2019-03-09T13:15:56.810Z,100357.89
2019-03-09T13:20:50.459Z,100391.19
2019-03-09T13:25:43.878Z,100399.05
2019-03-09T13:30:37.657Z,100388.09
2019-03-09T13:35:31.538Z,100387.52
2019-03-09T13:40:25.478Z,100350.80
2019-03-09T13:45:20.143Z,100361.97
2019-03-09T13:50:14.231Z,100364.02
2019-03-09T13:55:08.837Z,100357.77
2019-03-09T14:00:02.611Z,100368.57
2019-03-09T14:04:56.102Z,100372.34
2019-03-09T14:09:49.894Z,100377.33
2019-03-09T14:14:45.898Z,100372.23
2019-03-09T14:19:39.163Z,100398.34
2019-03-09T14:24:32.889Z,100401.71
2019-03-09T14:29:28.277Z,100382.78
2019-03-09T14:34:21.680Z,100381.86
2019-03-09T14:39:17.130Z,100369.53
2019-03-09T14:44:11.903Z,100371.83
2019-03-09T14:49:05.305Z,100370.59
2019-03-09T14:54:00.812Z,100365.42
2019-03-09T14:58:54.175Z,100380.55
2019-03-09T15:03:48.023Z,100382.70
2019-03-09T15:08:41.376Z,100385.12
2019-03-09T15:13:35.376Z,100351.80
2019-03-09T15:18:28.945Z,100357.30
2019-03-09T15:23:22.936Z,100358.59
2019-03-09T15:28:16.929Z,100342.67
2019-03-09T15:33:10.704Z,100344.56
2019-03-09T15:38:04.396Z,100360.94
2019-03-09T15:42:58.055Z,100383.67
2019-03-09T15:47:51.649Z,100352.33
2019-03-09T15:52:45.455Z,100329.42
2019-03-09T15:57:40.887Z,100357.19
2019-03-09T16:02:35.399Z,100345.33
2019-03-09T16:07:28.964Z,100357.45
2019-03-09T16:12:24.579Z,100388.55
2019-03-09T16:17:18.172Z,100446.31
2019-03-09T16:22:11.652Z,100454.63
2019-03-09T16:27:05.316Z,100447.95
2019-03-09T16:32:01.223Z,100487.54
2019-03-09T16:36:56.087Z,100499.95
2019-03-09T16:41:50.693Z,100520.31
2019-03-09T16:46:44.175Z,100523.91
2019-03-09T16:51:38.255Z,100548.59
2019-03-09T16:56:31.894Z,100571.25
2019-03-09T17:01:27.148Z,100587.19
2019-03-09T17:06:20.761Z,100599.73
2019-03-09T17:11:14.383Z,100620.64
2019-03-09T17:16:07.881Z,100634.19
2019-03-09T17:21:01.700Z,100643.20
2019-03-09T17:25:55.306Z,100692.11
2019-03-09T17:30:48.748Z,100686.81
2019-03-09T17:35:42.310Z,100707.97
2019-03-09T17:40:36.114Z,100710.23
2019-03-09T17:45:29.481Z,100727.94
2019-03-09T17:50:23.191Z,100738.45
2019-03-09T17:55:17.676Z,100730.54
2019-03-09T18:00:15.465Z,100762.80
2019-03-09T18:05:09.331Z,100773.45
2019-03-09T18:10:03.543Z,100786.81
2019-03-09T18:14:57.349Z,100797.29
2019-03-09T18:19:51.658Z,100814.37
2019-03-09T18:24:45.331Z,100835.78
2019-03-09T18:29:39.112Z,100843.50
2019-03-09T18:34:32.668Z,100854.03
2019-03-09T18:39:26.382Z,100859.77
2019-03-09T18:44:20.173Z,100882.16
2019-03-09T18:49:13.908Z,100879.69
2019-03-09T18:54:07.537Z,100892.83
2019-03-09T18:59:01.426Z,100894.37
2019-03-09T19:03:55.215Z,100899.23
2019-03-09T19:08:48.882Z,100897.06
2019-03-09T19:13:42.484Z,100918.64
2019-03-09T19:18:36.224Z,100918.69
2019-03-09T19:23:30.050Z,100939.91
2019-03-09T19:28:23.611Z,100935.04
2019-03-09T19:33:17.317Z,100943.67
2019-03-09T19:38:10.846Z,100942.06
2019-03-09T19:43:04.581Z,100948.76
2019-03-09T19:47:58.066Z,100963.45
2019-03-09T19:52:51.733Z,100979.97
2019-03-09T19:57:45.330Z,100975.70
2019-03-09T20:02:39.199Z,100980.53
2019-03-09T20:07:34.158Z,100984.78
2019-03-09T20:12:27.880Z,100986.80
2019-03-09T20:17:21.581Z,100990.61
2019-03-09T20:22:15.364Z,100998.59
2019-03-09T20:27:09.057Z,100985.97
2019-03-09T20:32:02.932Z,100997.83
2019-03-09T20:36:56.504Z,100997.20
2019-03-09T20:41:50.229Z,101004.45
2019-03-09T20:46:44.000Z,101004.51
2019-03-09T20:51:37.801Z,101009.14
2019-03-09T20:56:31.454Z,101009.22
2019-03-09T21:01:25.054Z,101006.95
2019-03-09T21:06:18.761Z,100998.70
2019-03-09T21:11:13.445Z,101010.30
2019-03-09T21:16:06.989Z,101002.08
2019-03-09T21:21:00.724Z,101019.92
2019-03-09T21:25:54.314Z,101018.25
2019-03-09T21:30:47.889Z,101011.80
2019-03-09T21:35:41.665Z,101013.89
2019-03-09T21:40:35.364Z,101014.98
2019-03-09T21:45:29.035Z,101007.37
2019-03-09T21:50:22.624Z,101008.51
2019-03-09T21:55:16.413Z,101006.18
2019-03-09T22:00:11.501Z,101012.41
2019-03-09T22:05:06.638Z,101018.55
2019-03-09T22:10:00.328Z,101021.23
2019-03-09T22:14:57.113Z,101023.12
2019-03-09T22:19:51.085Z,101005.42
2019-03-09T22:24:45.084Z,101024.58
2019-03-09T22:29:38.963Z,101015.42
2019-03-09T22:34:32.752Z,101021.47
2019-03-09T22:39:26.535Z,101023.61
2019-03-09T22:44:20.186Z,101020.63
2019-03-09T22:49:13.775Z,101024.09
2019-03-09T22:54:07.482Z,101024.14
2019-03-09T22:59:00.962Z,101022.35
2019-03-09T23:03:54.304Z,101008.91
2019-03-09T23:08:47.894Z,101003.70
2019-03-09T23:13:41.604Z,101008.22
2019-03-09T23:18:35.405Z,101010.97
2019-03-09T23:23:29.260Z,101010.84
2019-03-09T23:28:22.956Z,100995.80
2019-03-09T23:33:16.836Z,100978.34
2019-03-09T23:38:10.350Z,100980.39
2019-03-09T23:43:04.009Z,100977.66
2019-03-09T23:47:57.607Z,100977.16
2019-03-09T23:52:51.980Z,100966.97
2019-03-09T23:57:45.561Z,100987.92
